createdAt,value
2018-10-06T00:00:21.834Z,11.46
2018-10-06T00:02:51.553Z,11.64
2018-10-06T00:05:20.630Z,11.48
2018-10-06T00:07:58.467Z,11.08
2018-10-06T00:10:27.996Z,11.47
2018-10-06T00:12:56.508Z,11.43
2018-10-06T00:15:24.806Z,11.40
2018-10-06T00:18:02.091Z,11.26
2018-10-06T00:20:30.363Z,11.19
2018-10-06T00:23:02.102Z,11.15
2018-10-06T00:25:30.967Z,11.21
2018-10-06T00:28:00.458Z,11.19
2018-10-06T00:30:29.394Z,11.18
2018-10-06T00:32:57.872Z,11.16
2018-10-06T00:35:26.332Z,11.11
2018-10-06T00:38:01.733Z,11.08
2018-10-06T00:40:30.416Z,11.05
2018-10-06T00:42:59.121Z,11.04
2018-10-06T00:45:28.204Z,10.87
2018-10-06T00:48:05.056Z,10.98
2018-10-06T00:50:34.009Z,10.98
2018-10-06T00:53:02.485Z,10.93
2018-10-06T00:55:31.187Z,10.89
2018-10-06T00:58:01.867Z,10.86
2018-10-06T01:00:30.552Z,10.85
2018-10-06T01:03:05.190Z,10.85
2018-10-06T01:05:34.089Z,10.88
2018-10-06T01:08:13.017Z,10.33
2018-10-06T01:10:41.869Z,10.78
2018-10-06T01:13:12.033Z,10.87
2018-10-06T01:15:40.508Z,10.86
2018-10-06T01:18:09.000Z,10.87
2018-10-06T01:20:38.093Z,10.77
2018-10-06T01:23:06.544Z,10.93
2018-10-06T01:25:35.427Z,10.92
2018-10-06T01:28:04.140Z,10.89
2018-10-06T01:30:33.119Z,10.86
2018-10-06T01:33:01.721Z,10.85
2018-10-06T01:35:30.226Z,10.83
2018-10-06T01:37:59.294Z,10.72
2018-10-06T01:40:28.213Z,10.58
2018-10-06T01:43:03.220Z,10.77
2018-10-06T01:45:32.385Z,10.47
2018-10-06T01:48:01.027Z,10.66
2018-10-06T01:50:29.485Z,10.61
2018-10-06T01:52:58.599Z,10.59
2018-10-06T01:55:27.476Z,10.56
2018-10-06T01:57:56.112Z,10.40
2018-10-06T02:00:24.596Z,10.51
2018-10-06T02:02:53.342Z,10.30
2018-10-06T02:05:22.033Z,10.24
2018-10-06T02:07:50.660Z,10.46
2018-10-06T02:10:19.944Z,10.44
2018-10-06T02:12:48.305Z,10.36
2018-10-06T02:15:18.165Z,10.46
2018-10-06T02:17:46.866Z,10.44
2018-10-06T02:20:15.778Z,10.40
2018-10-06T02:22:44.604Z,10.39
2018-10-06T02:25:13.351Z,10.38
2018-10-06T02:27:42.245Z,10.17
2018-10-06T02:30:11.215Z,10.41
2018-10-06T02:32:40.196Z,10.41
2018-10-06T02:35:08.885Z,10.18
2018-10-06T02:37:37.401Z,10.43
2018-10-06T02:40:06.206Z,10.41
2018-10-06T02:42:35.341Z,10.41
2018-10-06T02:45:04.036Z,10.38
2018-10-06T02:47:32.921Z,10.36
2018-10-06T02:50:02.273Z,10.35
2018-10-06T02:52:30.901Z,10.31
2018-10-06T02:54:59.559Z,10.25
2018-10-06T02:57:28.488Z,10.20
2018-10-06T02:59:57.125Z,10.17
2018-10-06T03:02:25.644Z,10.13
2018-10-06T03:04:54.309Z,10.09
2018-10-06T03:07:23.772Z,10.05
2018-10-06T03:09:59.236Z,9.89
2018-10-06T03:12:28.373Z,9.99
2018-10-06T03:14:57.068Z,9.94
2018-10-06T03:17:25.580Z,9.90
2018-10-06T03:19:55.009Z,9.86
2018-10-06T03:22:23.565Z,9.80
2018-10-06T03:24:52.192Z,9.81
2018-10-06T03:27:21.116Z,9.79
2018-10-06T03:29:49.751Z,9.80
2018-10-06T03:32:18.269Z,9.79
2018-10-06T03:34:47.134Z,9.68
2018-10-06T03:37:15.836Z,9.82
2018-10-06T03:39:44.500Z,9.82
2018-10-06T03:42:13.449Z,9.80
2018-10-06T03:44:42.264Z,9.45
2018-10-06T03:47:10.785Z,9.80
2018-10-06T03:49:39.657Z,9.81
2018-10-06T03:52:08.197Z,9.69
2018-10-06T03:57:10.388Z,9.89
2018-10-06T03:59:39.332Z,9.91
2018-10-06T04:02:07.848Z,9.94
2018-10-06T04:04:36.464Z,9.95
2018-10-06T04:07:05.565Z,9.93
2018-10-06T04:09:34.232Z,9.94
2018-10-06T04:12:03.045Z,10.00
2018-10-06T04:14:31.857Z,10.05
2018-10-06T04:17:00.493Z,10.10
2018-10-06T04:19:29.044Z,10.14
2018-10-06T04:21:57.497Z,9.73
2018-10-06T04:24:26.401Z,10.24
2018-10-06T04:26:55.038Z,10.21
2018-10-06T04:29:23.867Z,10.38
2018-10-06T04:31:52.936Z,10.41
2018-10-06T04:34:21.973Z,10.52
2018-10-06T04:36:52.579Z,10.64
2018-10-06T04:39:21.169Z,10.77
2018-10-06T04:41:50.074Z,10.88
2018-10-06T04:44:24.913Z,10.91
2018-10-06T04:46:54.006Z,10.91
2018-10-06T04:49:31.875Z,10.88
2018-10-06T04:52:00.363Z,10.79
2018-10-06T04:54:40.885Z,10.71
2018-10-06T04:57:09.539Z,10.61
2018-10-06T04:59:38.624Z,10.54
2018-10-06T05:02:07.468Z,10.43
2018-10-06T05:04:35.977Z,10.34
2018-10-06T05:07:04.857Z,10.25
2018-10-06T05:09:33.220Z,10.17
2018-10-06T05:12:01.801Z,10.13
2018-10-06T05:14:30.900Z,10.07
2018-10-06T05:16:59.669Z,9.94
2018-10-06T05:19:30.565Z,10.02
2018-10-06T05:21:59.273Z,9.97
2018-10-06T05:24:27.872Z,9.91
2018-10-06T05:26:56.564Z,9.86
2018-10-06T05:29:25.491Z,9.85
2018-10-06T05:31:53.785Z,9.69
2018-10-06T05:34:23.288Z,9.82
2018-10-06T05:36:52.150Z,9.81
2018-10-06T05:39:20.866Z,9.82
2018-10-06T05:41:49.553Z,9.83
2018-10-06T05:44:20.528Z,9.61
2018-10-06T05:46:49.374Z,9.86
2018-10-06T05:49:17.833Z,9.89
2018-10-06T05:51:47.153Z,9.92
2018-10-06T05:54:18.923Z,9.97
2018-10-06T05:56:47.360Z,10.06
2018-10-06T05:59:16.205Z,10.03
2018-10-06T06:01:45.193Z,10.27
2018-10-06T06:04:14.552Z,10.29
2018-10-06T06:06:42.979Z,10.02
2018-10-06T06:12:01.960Z,10.46
2018-10-06T06:14:31.004Z,10.42
2018-10-06T06:16:59.504Z,10.20
2018-10-06T06:19:28.365Z,10.37
2018-10-06T06:21:57.314Z,10.28
2018-10-06T06:24:25.964Z,10.38
2018-10-06T06:26:54.428Z,10.43
2018-10-06T06:29:23.337Z,10.14
2018-10-06T06:31:52.235Z,10.46
2018-10-06T06:34:20.833Z,10.47
2018-10-06T06:36:50.624Z,10.38
2018-10-06T06:39:34.052Z,10.49
2018-10-06T06:42:02.993Z,10.38
2018-10-06T06:44:31.408Z,10.54
2018-10-06T06:46:59.893Z,10.47
2018-10-06T06:49:28.516Z,10.39
2018-10-06T06:51:57.048Z,10.66
2018-10-06T06:54:26.021Z,10.74
2018-10-06T06:56:54.929Z,10.85
2018-10-06T06:59:23.296Z,11.02
2018-10-06T07:01:52.195Z,11.18
2018-10-06T07:04:22.137Z,11.36
2018-10-06T07:06:51.373Z,11.56
2018-10-06T07:09:19.960Z,11.80
2018-10-06T07:11:48.756Z,12.05
2018-10-06T07:14:17.653Z,12.18
2018-10-06T07:16:46.092Z,12.53
2018-10-06T07:19:14.640Z,12.82
2018-10-06T07:21:43.237Z,13.09
2018-10-06T07:24:11.933Z,13.23
2018-10-06T07:26:41.438Z,13.53
2018-10-06T07:29:12.849Z,13.69
2018-10-06T07:31:41.437Z,13.91
2018-10-06T07:34:11.264Z,14.01
2018-10-06T07:36:39.853Z,14.32
2018-10-06T07:39:08.539Z,14.28
2018-10-06T07:41:37.408Z,14.64
2018-10-06T07:44:05.900Z,14.72
2018-10-06T07:46:34.598Z,14.82
2018-10-06T07:49:03.690Z,15.23
2018-10-06T07:51:32.016Z,15.37
2018-10-06T07:54:00.505Z,15.40
2018-10-06T07:56:29.352Z,15.48
2018-10-06T07:58:57.978Z,15.64
2018-10-06T08:01:26.500Z,15.61
2018-10-06T08:03:55.152Z,16.14
2018-10-06T08:06:23.879Z,16.32
2018-10-06T08:08:52.493Z,16.35
2018-10-06T08:11:21.166Z,16.64
2018-10-06T08:13:49.729Z,16.83
2018-10-06T08:16:18.040Z,17.04
2018-10-06T08:18:47.929Z,17.22
2018-10-06T08:21:16.805Z,17.28
2018-10-06T08:23:45.118Z,17.55
2018-10-06T08:26:13.680Z,17.84
2018-10-06T08:28:47.120Z,18.06
2018-10-06T08:31:15.712Z,18.29
2018-10-06T08:33:44.537Z,18.55
2018-10-06T08:36:13.020Z,18.88
2018-10-06T08:38:41.761Z,19.22
2018-10-06T08:41:10.109Z,19.60
2018-10-06T08:43:38.690Z,19.98
2018-10-06T08:46:07.328Z,20.24
2018-10-06T08:48:35.666Z,20.37
2018-10-06T08:51:04.057Z,20.50
2018-10-06T08:53:32.813Z,20.61
2018-10-06T08:56:01.364Z,20.81
2018-10-06T08:58:29.887Z,20.92
2018-10-06T09:00:58.808Z,21.02
2018-10-06T09:03:27.333Z,21.17
2018-10-06T09:05:55.613Z,21.16
2018-10-06T09:08:24.834Z,21.51
2018-10-06T09:10:53.119Z,21.68
2018-10-06T09:13:21.661Z,21.84
2018-10-06T09:15:50.420Z,21.85
2018-10-06T09:18:18.837Z,21.76
2018-10-06T09:20:47.476Z,21.68
2018-10-06T09:23:16.599Z,21.44
2018-10-06T09:25:44.857Z,21.52
2018-10-06T09:28:14.998Z,21.62
2018-10-06T09:30:43.627Z,21.96
2018-10-06T09:33:12.340Z,22.17
2018-10-06T09:35:40.729Z,22.28
2018-10-06T09:38:09.372Z,22.51
2018-10-06T09:40:37.643Z,22.88
2018-10-06T09:43:06.456Z,22.89
2018-10-06T09:45:35.042Z,22.81
2018-10-06T09:48:03.850Z,22.87
2018-10-06T09:50:32.183Z,22.90
2018-10-06T09:53:00.792Z,23.14
2018-10-06T09:55:29.089Z,23.38
2018-10-06T09:57:57.597Z,23.60
2018-10-06T10:00:31.952Z,23.60
2018-10-06T10:03:05.663Z,23.42
2018-10-06T10:05:39.597Z,23.61
2018-10-06T10:08:07.891Z,23.64
2018-10-06T10:10:36.324Z,23.57
2018-10-06T10:13:05.049Z,23.74
2018-10-06T10:15:33.461Z,23.89
2018-10-06T10:18:01.904Z,24.12
2018-10-06T10:20:30.429Z,24.49
2018-10-06T10:22:59.368Z,24.63
2018-10-06T10:25:27.673Z,24.75
2018-10-06T10:27:56.252Z,24.76
2018-10-06T10:30:25.004Z,24.87
2018-10-06T10:32:53.812Z,24.96
2018-10-06T10:35:22.385Z,25.13
2018-10-06T10:37:50.952Z,25.16
2018-10-06T10:40:20.147Z,25.48
2018-10-06T10:42:49.667Z,25.68
2018-10-06T10:45:18.010Z,25.83
2018-10-06T10:47:46.657Z,25.87
2018-10-06T10:50:15.244Z,25.96
2018-10-06T10:52:43.800Z,26.02
2018-10-06T10:55:12.104Z,25.92
2018-10-06T10:57:40.720Z,26.01
2018-10-06T11:00:09.455Z,25.88
2018-10-06T11:02:37.972Z,25.69
2018-10-06T11:05:06.602Z,25.68
2018-10-06T11:07:35.075Z,25.94
2018-10-06T11:10:03.933Z,26.25
2018-10-06T11:12:32.603Z,26.46
2018-10-06T11:15:01.386Z,26.72
2018-10-06T11:17:29.733Z,26.94
2018-10-06T11:19:58.577Z,27.05
2018-10-06T11:22:26.952Z,27.11
2018-10-06T11:24:55.793Z,27.19
2018-10-06T11:27:24.813Z,27.15
2018-10-06T11:29:55.894Z,27.24
2018-10-06T11:32:24.220Z,27.55
2018-10-06T11:34:53.072Z,27.55
2018-10-06T11:37:21.627Z,27.35
2018-10-06T11:39:49.905Z,26.94
2018-10-06T11:42:18.460Z,26.72
2018-10-06T11:44:46.735Z,26.57
2018-10-06T11:47:15.006Z,26.49
2018-10-06T11:49:43.874Z,26.55
2018-10-06T11:52:12.621Z,26.68
2018-10-06T11:54:40.947Z,26.72
2018-10-06T11:57:09.520Z,26.96
2018-10-06T11:59:38.152Z,27.06
2018-10-06T12:02:06.642Z,26.92
2018-10-06T12:04:35.681Z,26.86
2018-10-06T12:07:04.084Z,26.84
2018-10-06T12:09:32.396Z,26.88
2018-10-06T12:12:01.829Z,27.00
2018-10-06T12:14:30.080Z,27.11
2018-10-06T12:16:58.569Z,27.32
2018-10-06T12:19:27.145Z,27.22
2018-10-06T12:21:55.684Z,26.76
2018-10-06T12:24:24.325Z,26.07
2018-10-06T12:26:52.881Z,26.09
2018-10-06T12:29:21.165Z,25.77
2018-10-06T12:31:49.952Z,25.69
2018-10-06T12:34:18.497Z,25.57
2018-10-06T12:36:46.807Z,25.68
2018-10-06T12:39:15.188Z,25.71
2018-10-06T12:41:43.989Z,25.66
2018-10-06T12:44:12.260Z,25.40
2018-10-06T12:46:40.547Z,25.35
2018-10-06T12:49:09.092Z,25.24
2018-10-06T12:51:37.385Z,25.23
2018-10-06T12:54:05.720Z,25.35
2018-10-06T12:56:34.327Z,25.57
2018-10-06T12:59:02.624Z,25.83
2018-10-06T13:01:30.961Z,25.77
2018-10-06T13:03:59.910Z,25.52
2018-10-06T13:06:28.982Z,25.65
2018-10-06T13:08:59.372Z,25.54
2018-10-06T13:11:27.941Z,25.39
2018-10-06T13:13:56.237Z,24.80
2018-10-06T13:16:24.509Z,25.02
2018-10-06T13:18:53.067Z,25.08
2018-10-06T13:21:21.677Z,25.07
2018-10-06T13:23:49.933Z,24.98
2018-10-06T13:26:18.488Z,24.98
2018-10-06T13:28:46.776Z,24.68
2018-10-06T13:31:15.049Z,24.48
2018-10-06T13:33:44.102Z,24.38
2018-10-06T13:36:12.409Z,24.23
2018-10-06T13:38:40.856Z,23.78
2018-10-06T13:41:09.540Z,23.93
2018-10-06T13:43:37.897Z,23.89
2018-10-06T13:46:06.481Z,23.74
2018-10-06T13:48:35.061Z,23.96
2018-10-06T13:51:03.380Z,23.92
2018-10-06T13:53:31.657Z,23.95
2018-10-06T13:56:00.232Z,23.93
2018-10-06T13:58:32.746Z,23.83
2018-10-06T14:01:01.076Z,23.84
2018-10-06T14:03:30.418Z,23.73
2018-10-06T14:05:59.487Z,23.67
2018-10-06T14:08:28.849Z,23.66
2018-10-06T14:10:57.441Z,23.59
2018-10-06T14:13:25.810Z,23.74
2018-10-06T14:15:54.098Z,23.79
2018-10-06T14:18:23.107Z,23.86
2018-10-06T14:20:51.583Z,23.49
2018-10-06T14:23:20.488Z,23.98
2018-10-06T14:25:49.779Z,24.05
2018-10-06T14:28:19.505Z,23.91
2018-10-06T14:30:47.825Z,23.83
2018-10-06T14:33:16.717Z,23.83
2018-10-06T14:35:45.102Z,23.88
2018-10-06T14:38:13.397Z,23.99
2018-10-06T14:40:42.948Z,23.95
2018-10-06T14:43:11.513Z,23.95
2018-10-06T14:45:39.860Z,23.96
2018-10-06T14:48:08.728Z,23.93
2018-10-06T14:50:37.084Z,23.79
2018-10-06T14:53:05.439Z,23.97
2018-10-06T14:55:36.222Z,23.99
2018-10-06T14:58:05.213Z,24.02
2018-10-06T15:00:36.774Z,23.98
2018-10-06T15:03:05.396Z,23.94
2018-10-06T15:05:34.124Z,23.80
2018-10-06T15:08:03.107Z,23.71
2018-10-06T15:10:31.849Z,23.67
2018-10-06T15:13:00.667Z,23.60
2018-10-06T15:15:31.371Z,23.50
2018-10-06T15:18:01.032Z,23.57
2018-10-06T15:20:29.314Z,23.55
2018-10-06T15:23:04.806Z,23.57
2018-10-06T15:25:33.391Z,23.52
2018-10-06T15:28:01.720Z,23.38
2018-10-06T15:30:30.051Z,23.44
2018-10-06T15:32:59.585Z,23.39
2018-10-06T15:35:27.944Z,23.37
2018-10-06T15:37:56.397Z,23.35
2018-10-06T15:40:25.041Z,23.35
2018-10-06T15:42:53.488Z,23.31
2018-10-06T15:45:21.925Z,23.30
2018-10-06T15:47:50.959Z,23.26
2018-10-06T15:50:19.379Z,23.16
2018-10-06T15:52:47.800Z,23.28
2018-10-06T15:55:16.380Z,23.32
2018-10-06T15:57:45.249Z,23.31
2018-10-06T16:00:13.686Z,23.19
2018-10-06T16:02:42.630Z,23.26
2018-10-06T16:05:11.003Z,23.09
2018-10-06T16:07:40.420Z,23.25
2018-10-06T16:10:09.147Z,23.20
2018-10-06T16:12:37.643Z,23.02
2018-10-06T16:15:06.747Z,23.00
2018-10-06T16:17:35.421Z,22.84
2018-10-06T16:20:03.857Z,22.85
2018-10-06T16:22:32.177Z,22.78
2018-10-06T16:25:00.744Z,22.66
2018-10-06T16:27:29.126Z,22.53
2018-10-06T16:29:57.377Z,22.54
2018-10-06T16:32:25.961Z,22.47
2018-10-06T16:34:54.312Z,22.30
2018-10-06T16:37:22.925Z,22.31
2018-10-06T16:39:51.499Z,22.13
2018-10-06T16:42:19.770Z,22.03
2018-10-06T16:44:48.354Z,21.92
2018-10-06T16:47:16.947Z,21.90
2018-10-06T16:49:45.416Z,21.79
2018-10-06T16:52:13.846Z,21.73
2018-10-06T16:54:42.579Z,21.68
2018-10-06T16:57:10.873Z,21.51
2018-10-06T16:59:39.335Z,21.50
2018-10-06T17:02:07.996Z,21.42
2018-10-06T17:04:36.229Z,21.35
2018-10-06T17:07:04.539Z,21.26
2018-10-06T17:09:33.281Z,21.18
2018-10-06T17:12:01.792Z,20.30
2018-10-06T17:14:30.757Z,21.03
2018-10-06T17:16:59.348Z,20.95
2018-10-06T17:19:27.608Z,20.84
2018-10-06T17:21:55.963Z,20.60
2018-10-06T17:24:24.844Z,20.73
2018-10-06T17:26:53.424Z,20.69
2018-10-06T17:29:21.735Z,20.64
2018-10-06T17:31:50.345Z,20.48
2018-10-06T17:34:20.745Z,20.53
2018-10-06T17:36:49.205Z,20.12
2018-10-06T17:39:17.865Z,20.38
2018-10-06T17:41:46.244Z,20.30
2018-10-06T17:44:14.855Z,20.31
2018-10-06T17:46:43.468Z,20.14
2018-10-06T17:49:12.328Z,20.19
2018-10-06T17:51:40.931Z,20.17
2018-10-06T17:54:09.952Z,20.15
2018-10-06T17:56:38.507Z,20.12
2018-10-06T17:59:07.356Z,20.07
2018-10-06T18:01:36.113Z,19.94
2018-10-06T18:04:04.483Z,19.98
2018-10-06T18:06:33.037Z,19.92
2018-10-06T18:09:01.650Z,19.79
2018-10-06T18:11:29.981Z,19.73
2018-10-06T18:13:58.292Z,19.75
2018-10-06T18:16:27.357Z,19.71
2018-10-06T18:18:56.061Z,19.64
2018-10-06T18:21:24.850Z,19.49
2018-10-06T18:23:54.046Z,19.39
2018-10-06T18:26:22.377Z,19.56
2018-10-06T18:28:50.678Z,19.56
2018-10-06T18:31:19.284Z,19.56
2018-10-06T18:33:47.573Z,19.57
2018-10-06T18:36:15.879Z,19.57
2018-10-06T18:38:44.526Z,19.47
2018-10-06T18:41:12.813Z,19.51
2018-10-06T18:43:43.389Z,19.47
2018-10-06T18:46:12.037Z,19.45
2018-10-06T18:48:40.557Z,19.42
2018-10-06T18:51:08.924Z,19.38
2018-10-06T18:53:37.527Z,19.34
2018-10-06T18:56:05.961Z,19.23
2018-10-06T18:58:34.241Z,19.21
2018-10-06T19:01:02.820Z,19.28
2018-10-06T19:03:31.109Z,19.27
2018-10-06T19:05:59.446Z,19.26
2018-10-06T19:08:28.029Z,19.16
2018-10-06T19:10:56.943Z,19.24
2018-10-06T19:13:25.345Z,19.13
2018-10-06T19:15:54.273Z,19.23
2018-10-06T19:18:22.602Z,19.24
2018-10-06T19:20:50.905Z,19.24
2018-10-06T19:23:20.661Z,18.69
2018-10-06T19:25:49.023Z,19.20
2018-10-06T19:28:17.475Z,19.11
2018-10-06T19:30:46.480Z,19.14
2018-10-06T19:33:14.860Z,19.13
2018-10-06T19:35:43.167Z,19.11
2018-10-06T19:38:11.848Z,19.09
2018-10-06T19:40:45.029Z,19.10
2018-10-06T19:43:14.181Z,19.08
2018-10-06T19:45:42.910Z,19.07
2018-10-06T19:48:11.618Z,18.96
2018-10-06T19:50:39.925Z,19.06
2018-10-06T19:53:08.744Z,18.98
2018-10-06T19:55:37.424Z,18.95
2018-10-06T19:58:05.916Z,18.85
2018-10-06T20:00:34.509Z,19.04
2018-10-06T20:03:02.844Z,18.94
2018-10-06T20:05:31.205Z,19.02
2018-10-06T20:07:59.777Z,19.00
2018-10-06T20:10:28.249Z,18.96
2018-10-06T20:12:56.580Z,18.91
2018-10-06T20:15:25.181Z,18.79
2018-10-06T20:17:54.672Z,18.79
2018-10-06T20:20:23.169Z,18.75
2018-10-06T20:22:52.045Z,18.69
2018-10-06T20:25:20.759Z,18.68
2018-10-06T20:27:49.520Z,18.68
2018-10-06T20:30:18.136Z,18.71
2018-10-06T20:32:47.126Z,18.71
2018-10-06T20:35:15.481Z,18.71
2018-10-06T20:37:44.065Z,18.71
2018-10-06T20:40:12.921Z,18.70
2018-10-06T20:42:41.388Z,18.71
2018-10-06T20:45:10.004Z,18.60
2018-10-06T20:47:38.468Z,18.58
2018-10-06T20:50:10.844Z,17.94
2018-10-06T20:52:39.514Z,18.65
2018-10-06T20:55:08.172Z,18.63
2018-10-06T20:57:36.690Z,18.54
2018-10-06T21:00:06.361Z,18.63
2018-10-06T21:02:35.917Z,18.54
2018-10-06T21:05:05.809Z,18.61
2018-10-06T21:07:34.720Z,18.32
2018-10-06T21:10:03.393Z,18.58
2018-10-06T21:12:33.097Z,18.38
2018-10-06T21:15:03.145Z,18.51
2018-10-06T21:17:32.558Z,18.36
2018-10-06T21:20:01.626Z,18.42
2018-10-06T21:22:31.636Z,18.22
2018-10-06T21:25:00.872Z,18.29
2018-10-06T21:27:29.228Z,18.24
2018-10-06T21:29:58.364Z,18.30
2018-10-06T21:32:26.815Z,18.26
2018-10-06T21:34:55.544Z,18.20
2018-10-06T21:37:24.457Z,17.98
2018-10-06T21:39:52.903Z,18.14
2018-10-06T21:42:21.230Z,18.11
2018-10-06T21:44:50.249Z,18.07
2018-10-06T21:47:19.112Z,17.84
2018-10-06T21:49:47.365Z,17.96
2018-10-06T21:52:16.669Z,17.60
2018-10-06T21:54:45.379Z,17.49
2018-10-06T21:57:15.134Z,17.49
2018-10-06T21:59:44.693Z,17.44
2018-10-06T22:02:13.908Z,17.68
2018-10-06T22:04:42.308Z,17.63
2018-10-06T22:07:23.621Z,17.45
2018-10-06T22:09:52.424Z,17.42
2018-10-06T22:12:21.408Z,17.59
2018-10-06T22:14:49.925Z,17.27
2018-10-06T22:17:18.249Z,17.41
2018-10-06T22:19:47.374Z,17.47
2018-10-06T22:22:15.688Z,17.37
2018-10-06T22:24:44.157Z,17.44
2018-10-06T22:27:13.262Z,17.43
2018-10-06T22:29:41.573Z,17.41
2018-10-06T22:32:09.988Z,17.39
2018-10-06T22:34:38.916Z,17.25
2018-10-06T22:37:07.260Z,17.35
2018-10-06T22:39:36.296Z,17.33
2018-10-06T22:42:05.532Z,16.75
2018-10-06T22:44:34.217Z,17.31
2018-10-06T22:47:03.184Z,17.29
2018-10-06T22:49:31.769Z,17.29
2018-10-06T22:52:00.309Z,17.28
2018-10-06T22:54:28.772Z,17.25
2018-10-06T22:56:57.774Z,17.26
2018-10-06T22:59:26.376Z,17.25
2018-10-06T23:01:55.215Z,17.24
2018-10-06T23:04:23.988Z,17.23
2018-10-06T23:06:52.421Z,17.17
2018-10-06T23:09:21.085Z,17.14
2018-10-06T23:11:50.166Z,17.10
2018-10-06T23:14:18.665Z,17.06
2018-10-06T23:16:47.153Z,17.02
2018-10-06T23:19:16.225Z,16.96
2018-10-06T23:21:44.750Z,16.90
2018-10-06T23:24:13.658Z,16.87
2018-10-06T23:26:42.716Z,16.82
2018-10-06T23:29:11.372Z,16.57
2018-10-06T23:31:39.899Z,16.73
2018-10-06T23:34:08.965Z,16.35
2018-10-06T23:36:39.692Z,16.56
2018-10-06T23:39:08.258Z,16.39
2018-10-06T23:41:37.097Z,16.47
2018-10-06T23:44:05.980Z,16.43
2018-10-06T23:46:34.609Z,16.37
2018-10-06T23:49:04.031Z,16.25
2018-10-06T23:51:32.665Z,16.29
2018-10-06T23:54:03.303Z,16.00
2018-10-06T23:56:32.398Z,16.19
2018-10-06T23:59:00.985Z,16.18
